createdAt,value
2022-08-03T00:01:48.868Z,8.80
2022-08-03T00:04:15.303Z,5.05
2022-08-03T00:06:41.789Z,4.28
2022-08-03T00:09:08.874Z,3.22
2022-08-03T00:11:36.530Z,2.58
2022-08-03T00:14:05.112Z,4.38
2022-08-03T00:16:31.650Z,4.63
2022-08-03T00:18:58.258Z,6.00
2022-08-03T00:21:27.669Z,6.57
2022-08-03T00:23:54.098Z,3.45
2022-08-03T00:26:21.875Z,3.03
2022-08-03T00:28:49.007Z,4.53
2022-08-03T00:31:15.854Z,4.65
2022-08-03T00:33:58.244Z,3.38
2022-08-03T00:36:26.818Z,3.33
2022-08-03T00:38:53.216Z,4.45
2022-08-03T00:41:19.776Z,4.70
2022-08-03T00:43:47.402Z,5.72
2022-08-03T00:46:16.458Z,4.20
2022-08-03T00:48:47.225Z,5.82
2022-08-03T00:51:13.816Z,9.65
2022-08-03T00:53:40.738Z,3.03
2022-08-03T00:56:07.289Z,3.75
2022-08-03T00:58:33.700Z,5.97
2022-08-03T01:01:00.267Z,3.70
2022-08-03T01:03:26.779Z,12.00
2022-08-03T01:06:00.437Z,3.63
2022-08-03T01:08:33.214Z,4.88
2022-08-03T01:11:19.025Z,6.28
2022-08-03T01:14:19.221Z,5.00
2022-08-03T01:17:28.153Z,5.68
2022-08-03T01:20:02.509Z,5.72
2022-08-03T01:22:50.686Z,3.45
2022-08-03T01:25:38.995Z,3.90
2022-08-03T01:28:11.445Z,4.88
2022-08-03T01:30:40.787Z,9.70
2022-08-03T01:33:17.522Z,4.38
2022-08-03T01:35:59.461Z,3.83
2022-08-03T01:38:29.359Z,3.22
2022-08-03T01:40:57.777Z,3.90
2022-08-03T01:44:28.606Z,3.53
2022-08-03T01:46:16.888Z,4.33
2022-08-03T01:48:46.219Z,3.45
2022-08-03T01:51:15.603Z,4.53
2022-08-03T01:53:43.281Z,4.93
2022-08-03T01:56:10.668Z,3.63
2022-08-03T01:58:38.715Z,2.95
2022-08-03T02:01:06.020Z,6.65
2022-08-03T02:03:38.260Z,3.88
2022-08-03T02:07:01.376Z,9.52
2022-08-03T02:09:14.855Z,4.00
2022-08-03T02:11:42.683Z,4.15
2022-08-03T02:14:10.560Z,4.70
2022-08-03T02:16:37.200Z,4.00
2022-08-03T02:19:06.508Z,3.38
2022-08-03T02:21:57.471Z,4.18
2022-08-03T02:24:23.279Z,6.97
2022-08-03T02:26:53.164Z,3.65
2022-08-03T02:29:39.709Z,4.85
2022-08-03T02:32:10.794Z,5.90
2022-08-03T02:34:39.815Z,3.47
2022-08-03T02:37:08.497Z,10.27
2022-08-03T02:39:36.790Z,4.20
2022-08-03T02:42:05.720Z,5.65
2022-08-03T02:44:34.085Z,3.80
2022-08-03T02:47:10.240Z,4.55
2022-08-03T02:49:50.578Z,5.78
2022-08-03T02:52:20.636Z,6.80
2022-08-03T02:54:50.965Z,5.75
2022-08-03T02:57:19.368Z,10.07
2022-08-03T02:59:46.083Z,5.32
2022-08-03T03:02:15.818Z,5.18
2022-08-03T03:05:52.989Z,4.00
2022-08-03T03:07:31.323Z,5.18
2022-08-03T03:10:09.320Z,8.43
2022-08-03T03:12:40.792Z,4.18
2022-08-03T03:15:07.614Z,6.53
2022-08-03T03:17:37.267Z,5.30
2022-08-03T03:20:04.648Z,3.58
2022-08-03T03:22:33.473Z,5.18
2022-08-03T03:25:00.617Z,3.80
2022-08-03T03:27:27.240Z,3.78
2022-08-03T03:29:54.047Z,4.50
2022-08-03T03:32:20.547Z,3.90
2022-08-03T03:34:47.911Z,5.43
2022-08-03T03:37:14.388Z,4.32
2022-08-03T03:39:40.853Z,4.32
2022-08-03T03:42:07.582Z,4.40
2022-08-03T03:44:34.137Z,4.30
2022-08-03T03:47:00.836Z,6.55
2022-08-03T03:49:27.647Z,3.67
2022-08-03T03:51:55.517Z,3.75
2022-08-03T03:54:22.380Z,4.93
2022-08-03T03:56:52.187Z,5.57
2022-08-03T03:59:18.688Z,6.45
2022-08-03T04:01:45.627Z,4.45
2022-08-03T04:04:30.788Z,10.75
2022-08-03T04:07:15.640Z,15.02
2022-08-03T04:10:14.746Z,14.38
2022-08-03T04:12:50.184Z,8.75
2022-08-03T04:15:21.349Z,16.70
2022-08-03T04:17:50.216Z,18.48
2022-08-03T04:20:20.068Z,13.38
2022-08-03T04:22:49.613Z,8.23
2022-08-03T04:25:19.332Z,24.83
2022-08-03T04:28:07.990Z,10.32
2022-08-03T04:30:38.712Z,10.40
2022-08-03T04:33:06.291Z,10.90
2022-08-03T04:36:02.266Z,7.90
2022-08-03T04:38:23.675Z,5.32
2022-08-03T04:40:50.776Z,7.50
2022-08-03T04:43:18.542Z,9.05
2022-08-03T04:45:47.821Z,5.68
2022-08-03T04:48:15.340Z,5.88
2022-08-03T04:50:42.842Z,17.58
2022-08-03T04:53:09.392Z,12.82
2022-08-03T04:55:36.441Z,21.45
2022-08-03T04:58:04.304Z,15.93
2022-08-03T05:00:30.987Z,17.67
2022-08-03T05:02:57.759Z,15.18
2022-08-03T05:05:24.881Z,16.15
2022-08-03T05:07:52.075Z,16.52
2022-08-03T05:10:19.864Z,8.02
2022-08-03T05:12:48.364Z,10.95
2022-08-03T05:15:15.833Z,9.35
2022-08-03T05:17:42.710Z,6.68
2022-08-03T05:20:13.044Z,7.32
2022-08-03T05:22:39.580Z,8.65
2022-08-03T05:25:06.473Z,10.68
2022-08-03T05:27:32.929Z,7.32
2022-08-03T05:30:30.839Z,19.90
2022-08-03T05:32:45.961Z,7.68
2022-08-03T05:36:01.182Z,16.42
2022-08-03T05:37:58.950Z,8.80
2022-08-03T05:40:25.367Z,16.08
2022-08-03T05:42:53.652Z,15.73
2022-08-03T05:45:20.243Z,9.30
2022-08-03T05:47:47.887Z,11.18
2022-08-03T05:50:14.648Z,13.13
2022-08-03T05:52:41.431Z,14.75
2022-08-03T05:55:08.767Z,19.77
2022-08-03T05:57:35.387Z,16.25
2022-08-03T06:00:10.033Z,12.68
2022-08-03T06:02:39.420Z,17.10
2022-08-03T06:05:06.806Z,15.05
2022-08-03T06:07:33.344Z,11.07
2022-08-03T06:10:35.662Z,16.10
2022-08-03T06:12:49.398Z,8.57
2022-08-03T06:15:16.511Z,11.65
2022-08-03T06:17:50.638Z,15.50
2022-08-03T06:20:18.839Z,16.98
2022-08-03T06:22:50.873Z,18.27
2022-08-03T06:25:19.309Z,9.32
2022-08-03T06:27:48.075Z,11.63
2022-08-03T06:30:19.291Z,13.00
2022-08-03T06:32:52.096Z,11.48
2022-08-03T06:35:19.501Z,6.28
2022-08-03T06:37:51.857Z,8.48
2022-08-03T06:40:29.029Z,8.93
2022-08-03T06:42:56.900Z,6.70
2022-08-03T06:45:23.694Z,5.10
2022-08-03T06:48:00.940Z,6.28
2022-08-03T06:50:27.524Z,4.68
2022-08-03T06:52:54.047Z,5.80
2022-08-03T06:55:20.483Z,6.88
2022-08-03T06:57:46.881Z,5.82
2022-08-03T07:00:14.576Z,4.70
2022-08-03T07:02:41.568Z,5.55
2022-08-03T07:05:09.648Z,4.28
2022-08-03T07:07:36.857Z,8.73
2022-08-03T07:10:04.436Z,4.22
2022-08-03T07:12:31.676Z,9.43
2022-08-03T07:15:01.704Z,6.45
2022-08-03T07:17:34.511Z,4.35
2022-08-03T07:20:02.527Z,5.20
2022-08-03T07:22:29.344Z,6.18
2022-08-03T07:24:56.559Z,5.05
2022-08-03T07:27:23.390Z,4.57
2022-08-03T07:29:49.838Z,3.88
2022-08-03T07:32:16.429Z,5.70
2022-08-03T07:34:43.043Z,7.53
2022-08-03T07:37:09.477Z,6.25
2022-08-03T07:39:35.910Z,6.78
2022-08-03T07:42:02.417Z,4.65
2022-08-03T07:44:28.933Z,5.07
2022-08-03T07:46:55.346Z,5.65
2022-08-03T07:49:23.404Z,4.28
2022-08-03T07:52:08.548Z,5.43
2022-08-03T07:54:35.008Z,6.97
2022-08-03T07:57:01.419Z,7.22
2022-08-03T07:59:28.123Z,5.80
2022-08-03T08:02:15.008Z,3.65
2022-08-03T08:04:41.962Z,7.03
2022-08-03T08:07:08.435Z,4.22
2022-08-03T08:09:35.208Z,4.10
2022-08-03T08:12:01.699Z,3.95
2022-08-03T08:14:28.168Z,4.07
2022-08-03T08:16:56.105Z,9.23
2022-08-03T08:19:22.565Z,7.05
2022-08-03T08:21:53.702Z,5.93
2022-08-03T08:24:30.437Z,7.45
2022-08-03T08:26:57.747Z,5.63
2022-08-03T08:29:24.262Z,8.32
2022-08-03T08:31:50.710Z,6.82
2022-08-03T08:34:17.232Z,8.77
2022-08-03T08:36:43.794Z,3.63
2022-08-03T08:39:10.248Z,3.47
2022-08-03T08:41:36.725Z,5.00
2022-08-03T08:44:03.479Z,4.05
2022-08-03T08:46:32.609Z,5.97
2022-08-03T08:48:59.995Z,4.60
2022-08-03T08:51:59.695Z,4.75
2022-08-03T08:54:22.945Z,3.50
2022-08-03T08:56:52.616Z,4.40
2022-08-03T08:59:19.759Z,3.72
2022-08-03T09:01:46.363Z,3.90
2022-08-03T09:04:13.051Z,5.57
2022-08-03T09:06:39.487Z,3.38
2022-08-03T09:09:06.635Z,3.15
2022-08-03T09:12:00.418Z,6.10
2022-08-03T09:14:39.173Z,3.80
2022-08-03T09:17:06.336Z,3.22
2022-08-03T09:19:34.128Z,3.90
2022-08-03T09:22:18.812Z,5.10
2022-08-03T09:25:24.283Z,5.20
2022-08-03T09:27:51.469Z,2.70
2022-08-03T09:30:34.235Z,8.00
2022-08-03T09:33:03.535Z,2.88
2022-08-03T09:35:53.049Z,4.28
2022-08-03T09:38:26.192Z,2.78
2022-08-03T09:40:59.179Z,3.70
2022-08-03T09:43:27.523Z,5.57
2022-08-03T09:46:03.693Z,4.22
2022-08-03T09:48:31.554Z,6.78
2022-08-03T09:51:14.243Z,3.63
2022-08-03T09:53:58.773Z,5.22
2022-08-03T09:56:41.919Z,4.20
2022-08-03T09:59:09.102Z,3.63
2022-08-03T10:01:37.261Z,3.53
2022-08-03T10:04:05.330Z,2.75
2022-08-03T10:06:32.047Z,5.35
2022-08-03T10:09:07.478Z,5.93
2022-08-03T10:11:40.805Z,6.05
2022-08-03T10:14:10.486Z,5.88
2022-08-03T10:16:39.377Z,2.90
2022-08-03T10:19:07.896Z,6.05
2022-08-03T10:21:36.511Z,3.70
2022-08-03T10:24:05.363Z,4.57
2022-08-03T10:26:39.071Z,2.45
2022-08-03T10:29:24.991Z,4.20
2022-08-03T10:31:58.227Z,3.95
2022-08-03T10:34:40.341Z,3.17
2022-08-03T10:37:12.475Z,4.63
2022-08-03T10:39:53.156Z,3.63
2022-08-03T10:45:14.876Z,5.65
2022-08-03T10:47:41.653Z,2.72
2022-08-03T10:50:09.581Z,5.15
2022-08-03T10:52:41.157Z,6.88
2022-08-03T10:55:49.379Z,4.68
2022-08-03T10:58:30.633Z,3.83
2022-08-03T11:00:57.375Z,3.38
2022-08-03T11:03:23.877Z,3.05
2022-08-03T11:05:52.151Z,6.97
2022-08-03T11:08:34.818Z,4.13
2022-08-03T11:11:17.678Z,6.10
2022-08-03T11:14:03.443Z,7.22
2022-08-03T11:16:36.511Z,3.95
2022-08-03T11:19:08.360Z,4.03
2022-08-03T11:21:50.197Z,7.60
2022-08-03T11:24:39.204Z,8.70
2022-08-03T11:27:14.536Z,2.50
2022-08-03T11:29:58.717Z,2.10
2022-08-03T11:32:37.516Z,4.78
2022-08-03T11:35:28.899Z,3.90
2022-08-03T11:38:03.311Z,3.33
2022-08-03T11:40:37.731Z,2.90
2022-08-03T11:43:10.183Z,2.63
2022-08-03T11:45:37.364Z,3.42
2022-08-03T11:48:22.833Z,4.07
2022-08-03T11:50:50.077Z,3.08
2022-08-03T11:53:18.237Z,2.13
2022-08-03T11:55:48.845Z,2.60
2022-08-03T11:59:13.166Z,3.53
2022-08-03T12:01:07.687Z,3.70
2022-08-03T12:03:35.073Z,6.30
2022-08-03T12:06:02.361Z,4.88
2022-08-03T12:08:33.262Z,2.97
2022-08-03T12:11:03.095Z,2.58
2022-08-03T12:14:35.761Z,4.78
2022-08-03T12:16:33.637Z,3.35
2022-08-03T12:19:02.861Z,5.72
2022-08-03T12:21:30.134Z,2.60
2022-08-03T12:24:04.494Z,2.95
2022-08-03T12:26:54.493Z,3.30
2022-08-03T12:29:26.242Z,4.82
2022-08-03T12:31:52.695Z,4.15
2022-08-03T12:34:19.110Z,5.60
2022-08-03T12:36:54.368Z,3.03
2022-08-03T12:39:25.144Z,2.53
2022-08-03T12:41:55.959Z,3.10
2022-08-03T12:44:33.388Z,2.70
2022-08-03T12:47:01.136Z,4.30
2022-08-03T12:49:30.473Z,3.72
2022-08-03T12:52:01.735Z,3.20
2022-08-03T12:54:33.848Z,2.20
2022-08-03T12:57:10.201Z,3.15
2022-08-03T12:59:42.486Z,3.03
2022-08-03T13:02:25.751Z,2.08
2022-08-03T13:04:54.489Z,4.85
2022-08-03T13:07:22.577Z,2.65
2022-08-03T13:09:52.939Z,4.28
2022-08-03T13:12:27.601Z,2.03
2022-08-03T13:14:58.996Z,2.50
2022-08-03T13:17:26.912Z,3.47
2022-08-03T13:19:53.883Z,5.60
2022-08-03T13:22:28.968Z,4.13
2022-08-03T13:24:57.350Z,6.00
2022-08-03T13:28:04.379Z,4.43
2022-08-03T13:30:11.499Z,2.63
2022-08-03T13:32:38.288Z,4.25
2022-08-03T13:35:05.579Z,2.55
2022-08-03T13:37:32.546Z,2.25
2022-08-03T13:40:02.474Z,5.78
2022-08-03T13:44:56.899Z,2.35
2022-08-03T13:47:23.560Z,3.78
2022-08-03T13:49:59.967Z,5.60
2022-08-03T13:52:35.813Z,3.88
2022-08-03T13:55:05.128Z,7.35
2022-08-03T13:58:02.554Z,2.75
2022-08-03T14:00:27.874Z,5.03
2022-08-03T14:03:16.381Z,2.92
2022-08-03T14:05:43.687Z,3.30
2022-08-03T14:08:10.863Z,2.33
2022-08-03T14:10:39.681Z,2.22
2022-08-03T14:13:06.281Z,1.88
2022-08-03T14:15:38.310Z,2.00
2022-08-03T14:18:07.169Z,3.30
2022-08-03T14:20:50.012Z,2.20
2022-08-03T14:23:17.936Z,2.40
2022-08-03T14:25:52.579Z,4.15
2022-08-03T14:28:22.362Z,2.40
2022-08-03T14:30:49.149Z,2.20
2022-08-03T14:33:15.852Z,4.13
2022-08-03T14:35:42.348Z,3.78
2022-08-03T14:38:08.856Z,2.08
2022-08-03T14:40:35.340Z,12.95
2022-08-03T14:43:02.500Z,1.95
2022-08-03T14:45:28.976Z,2.92
2022-08-03T14:50:29.165Z,7.55
2022-08-03T14:50:45.650Z,2.17
2022-08-03T14:53:17.626Z,4.07
2022-08-03T14:55:50.334Z,6.00
2022-08-03T14:58:22.323Z,3.40
2022-08-03T15:00:50.618Z,3.72
2022-08-03T15:03:20.300Z,2.97
2022-08-03T15:05:47.170Z,1.90
2022-08-03T15:08:13.616Z,1.98
2022-08-03T15:10:40.357Z,2.90
2022-08-03T15:13:10.623Z,2.50
2022-08-03T15:15:37.095Z,2.30
2022-08-03T15:18:03.707Z,1.98
2022-08-03T15:20:43.247Z,1.95
2022-08-03T15:23:12.323Z,2.25
2022-08-03T15:26:06.494Z,2.53
2022-08-03T15:28:25.405Z,3.63
2022-08-03T15:30:52.979Z,1.90
2022-08-03T15:33:20.112Z,3.15
2022-08-03T15:35:47.439Z,3.92
2022-08-03T15:38:14.013Z,2.20
2022-08-03T15:40:40.485Z,1.98
2022-08-03T15:43:07.258Z,3.40
2022-08-03T15:45:35.479Z,1.98
2022-08-03T15:48:06.974Z,2.45
2022-08-03T15:50:33.489Z,4.38
2022-08-03T15:52:59.968Z,2.35
2022-08-03T15:55:26.632Z,2.15
2022-08-03T15:59:03.435Z,2.05
2022-08-03T16:00:40.269Z,8.18
2022-08-03T16:03:06.684Z,3.08
2022-08-03T16:05:33.332Z,3.67
2022-08-03T16:08:03.822Z,4.65
2022-08-03T16:10:31.673Z,5.50
2022-08-03T16:13:01.183Z,4.50
2022-08-03T16:15:27.765Z,3.72
2022-08-03T16:17:54.537Z,3.47
2022-08-03T16:20:29.205Z,2.95
2022-08-03T16:23:00.668Z,2.25
2022-08-03T16:25:35.716Z,2.40
2022-08-03T16:28:07.715Z,3.55
2022-08-03T16:30:40.381Z,4.45
2022-08-03T16:33:07.015Z,3.33
2022-08-03T16:35:33.636Z,2.10
2022-08-03T16:38:00.516Z,2.50
2022-08-03T16:40:27.231Z,1.98
2022-08-03T16:42:54.341Z,4.35
2022-08-03T16:45:20.821Z,1.83
2022-08-03T16:47:47.241Z,3.10
2022-08-03T16:50:27.774Z,2.53
2022-08-03T16:52:54.231Z,2.75
2022-08-03T16:55:42.787Z,2.30
2022-08-03T16:58:07.967Z,2.28
2022-08-03T17:00:41.746Z,2.20
2022-08-03T17:03:16.395Z,2.20
2022-08-03T17:05:49.619Z,2.50
2022-08-03T17:08:18.921Z,1.60
2022-08-03T17:10:52.910Z,2.35
2022-08-03T17:13:22.022Z,1.70
2022-08-03T17:15:58.191Z,2.23
2022-08-03T17:18:34.138Z,2.13
2022-08-03T17:21:05.696Z,4.80
2022-08-03T17:23:49.593Z,6.07
2022-08-03T17:26:21.973Z,4.03
2022-08-03T17:28:57.425Z,2.97
2022-08-03T17:31:31.224Z,4.43
2022-08-03T17:34:12.648Z,1.77
2022-08-03T17:37:03.173Z,2.08
2022-08-03T17:39:48.535Z,4.90
2022-08-03T17:42:30.658Z,2.88
2022-08-03T17:45:02.057Z,3.75
2022-08-03T17:47:42.578Z,5.07
2022-08-03T17:50:23.427Z,5.65
2022-08-03T17:53:07.377Z,4.90
2022-08-03T17:55:56.823Z,4.68
2022-08-03T17:58:38.553Z,3.55
2022-08-03T18:02:00.101Z,2.47
2022-08-03T18:04:21.786Z,5.32
2022-08-03T18:06:59.384Z,10.27
2022-08-03T18:10:04.006Z,3.83
2022-08-03T18:12:29.357Z,3.05
2022-08-03T18:15:01.079Z,8.43
2022-08-03T18:17:58.346Z,7.10
2022-08-03T18:20:31.194Z,3.78
2022-08-03T18:25:56.178Z,3.85
2022-08-03T18:28:28.765Z,3.63
2022-08-03T18:30:56.407Z,2.88
2022-08-03T18:34:19.855Z,2.55
2022-08-03T18:36:21.642Z,5.05
2022-08-03T18:38:58.409Z,3.13
2022-08-03T18:41:32.505Z,5.07
2022-08-03T18:44:08.543Z,3.25
2022-08-03T18:47:06.879Z,2.38
2022-08-03T18:50:19.509Z,3.38
2022-08-03T18:52:54.604Z,12.40
2022-08-03T18:55:32.943Z,5.18
2022-08-03T19:01:03.356Z,4.80
2022-08-03T19:03:42.739Z,3.00
2022-08-03T19:06:20.009Z,3.83
2022-08-03T19:09:02.507Z,5.30
2022-08-03T19:12:14.443Z,4.53
2022-08-03T19:14:39.322Z,5.85
2022-08-03T19:17:10.995Z,6.88
2022-08-03T19:19:44.095Z,4.53
2022-08-03T19:22:12.573Z,11.15
2022-08-03T19:24:45.616Z,4.85
2022-08-03T19:27:12.793Z,2.60
2022-08-03T19:29:58.719Z,6.43
2022-08-03T19:32:30.724Z,2.33
2022-08-03T19:34:59.405Z,2.83
2022-08-03T19:37:27.519Z,6.38
2022-08-03T19:40:05.864Z,3.10
2022-08-03T19:42:40.608Z,4.85
2022-08-03T19:45:13.953Z,4.90
2022-08-03T19:47:58.464Z,2.22
2022-08-03T19:50:25.227Z,2.67
2022-08-03T19:52:52.847Z,4.35
2022-08-03T19:55:19.943Z,5.72
2022-08-03T19:57:49.233Z,4.18
2022-08-03T20:00:19.370Z,2.25
2022-08-03T20:02:46.361Z,4.78
2022-08-03T20:05:15.264Z,3.17
2022-08-03T20:08:04.032Z,6.43
2022-08-03T20:10:32.116Z,2.85
2022-08-03T20:12:59.753Z,4.82
2022-08-03T20:15:31.710Z,4.35
2022-08-03T20:17:59.300Z,3.47
2022-08-03T20:20:33.680Z,6.00
2022-08-03T20:23:03.227Z,2.10
2022-08-03T20:28:50.665Z,5.65
2022-08-03T20:31:23.940Z,3.88
2022-08-03T20:34:00.239Z,9.18
2022-08-03T20:36:26.964Z,5.70
2022-08-03T20:38:57.616Z,4.45
2022-08-03T20:41:24.880Z,5.50
2022-08-03T20:43:51.375Z,3.67
2022-08-03T20:46:32.617Z,3.50
2022-08-03T20:49:05.834Z,5.45
2022-08-03T20:51:52.568Z,5.40
2022-08-03T20:54:29.563Z,2.33
2022-08-03T20:56:59.731Z,2.40
2022-08-03T20:59:36.600Z,7.38
2022-08-03T21:02:13.597Z,3.67
2022-08-03T21:04:47.406Z,3.35
2022-08-03T21:07:23.939Z,5.47
2022-08-03T21:09:52.839Z,2.90
2022-08-03T21:12:38.143Z,4.82
2022-08-03T21:13:00.963Z,7.88
2022-08-03T21:13:04.851Z,6.00
2022-08-03T21:13:06.879Z,4.15
2022-08-03T21:15:09.605Z,5.88
2022-08-03T21:17:58.066Z,3.63
2022-08-03T21:20:31.936Z,4.00
2022-08-03T21:23:00.550Z,4.28
2022-08-03T21:25:31.319Z,6.93
2022-08-03T21:30:29.913Z,7.63
2022-08-03T21:32:57.964Z,8.70
2022-08-03T21:35:25.143Z,5.93
2022-08-03T21:38:11.931Z,4.60
2022-08-03T21:40:40.164Z,3.85
2022-08-03T21:43:07.134Z,2.60
2022-08-03T21:45:44.263Z,3.78
2022-08-03T21:48:13.572Z,3.10
2022-08-03T21:50:42.383Z,3.67
2022-08-03T21:53:10.900Z,4.88
2022-08-03T21:55:50.431Z,4.35
2022-08-03T21:58:29.406Z,4.78
2022-08-03T22:00:58.107Z,8.15
2022-08-03T22:03:25.864Z,2.40
2022-08-03T22:05:53.124Z,2.72
2022-08-03T22:08:34.471Z,3.28
2022-08-03T22:11:04.306Z,3.25
2022-08-03T22:13:43.185Z,6.00
2022-08-03T22:16:11.533Z,2.60
2022-08-03T22:18:39.590Z,6.30
2022-08-03T22:21:07.603Z,4.47
2022-08-03T22:23:40.658Z,7.90
2022-08-03T22:26:13.130Z,4.53
2022-08-03T22:28:40.004Z,4.55
2022-08-03T22:31:37.642Z,5.75
2022-08-03T22:33:54.440Z,8.85
2022-08-03T22:36:23.439Z,3.13
2022-08-03T22:38:53.606Z,9.85
2022-08-03T22:41:21.054Z,3.00
2022-08-03T22:43:49.380Z,7.47
2022-08-03T22:46:20.737Z,3.50
2022-08-03T22:48:48.352Z,4.80
2022-08-03T22:51:15.527Z,4.40
2022-08-03T22:53:42.304Z,4.45
2022-08-03T22:56:08.847Z,3.97
2022-08-03T22:58:35.349Z,4.55
2022-08-03T23:01:05.672Z,3.63
2022-08-03T23:03:58.780Z,6.45
2022-08-03T23:06:25.256Z,5.18
2022-08-03T23:08:51.793Z,3.65
2022-08-03T23:11:18.948Z,4.65
2022-08-03T23:13:51.831Z,4.00
2022-08-03T23:16:27.939Z,6.95
2022-08-03T23:18:57.619Z,5.63
2022-08-03T23:22:01.025Z,4.28
2022-08-03T23:24:26.026Z,3.85
2022-08-03T23:26:57.123Z,5.75
2022-08-03T23:29:23.864Z,4.95
2022-08-03T23:31:52.269Z,5.30
2022-08-03T23:34:37.669Z,3.60
2022-08-03T23:37:05.478Z,6.25
2022-08-03T23:39:35.015Z,3.03
2022-08-03T23:42:03.182Z,5.07
2022-08-03T23:44:34.535Z,5.40
2022-08-03T23:47:01.053Z,4.15
2022-08-03T23:49:27.567Z,3.13
2022-08-03T23:52:28.723Z,5.20
2022-08-03T23:58:01.247Z,3.00
